createdAt,value
2018-05-09T00:01:15.763Z,57.80
2018-05-09T00:03:48.091Z,57.00
2018-05-09T00:06:20.596Z,56.60
2018-05-09T00:08:53.919Z,57.10
2018-05-09T00:11:26.568Z,57.00
2018-05-09T00:13:59.245Z,57.00
2018-05-09T00:16:32.082Z,56.60
2018-05-09T00:19:04.684Z,57.00
2018-05-09T00:21:37.044Z,57.10
2018-05-09T00:24:09.528Z,57.00
2018-05-09T00:26:41.984Z,57.60
2018-05-09T00:29:14.380Z,58.00
2018-05-09T00:31:46.890Z,58.60
2018-05-09T00:34:19.226Z,58.30
2018-05-09T00:36:51.725Z,58.40
2018-05-09T00:39:24.239Z,58.50
2018-05-09T00:41:58.331Z,58.20
2018-05-09T00:44:31.009Z,58.20
2018-05-09T00:47:03.496Z,58.10
2018-05-09T00:49:35.984Z,58.50
2018-05-09T00:52:08.385Z,57.80
2018-05-09T00:54:40.853Z,58.10
2018-05-09T00:57:13.251Z,58.10
2018-05-09T00:59:46.451Z,58.10
2018-05-09T01:02:18.920Z,57.90
2018-05-09T01:04:51.520Z,57.90
2018-05-09T01:07:24.025Z,57.90
2018-05-09T01:09:56.467Z,58.40
2018-05-09T01:12:28.945Z,58.20
2018-05-09T01:15:01.490Z,57.50
2018-05-09T01:17:34.700Z,56.80
2018-05-09T01:20:07.274Z,56.70
2018-05-09T01:22:39.645Z,56.70
2018-05-09T01:25:12.047Z,57.00
2018-05-09T01:27:44.477Z,57.00
2018-05-09T01:30:16.975Z,56.50
2018-05-09T01:32:49.617Z,56.40
2018-05-09T01:35:22.907Z,56.80
2018-05-09T01:37:55.331Z,56.80
2018-05-09T01:40:27.981Z,56.60
2018-05-09T01:43:01.335Z,56.70
2018-05-09T01:45:33.809Z,56.70
2018-05-09T01:48:06.232Z,57.00
2018-05-09T01:50:38.591Z,57.00
2018-05-09T01:53:11.094Z,57.30
2018-05-09T01:55:43.585Z,57.40
2018-05-09T01:58:16.000Z,57.30
2018-05-09T02:00:49.197Z,57.40
2018-05-09T02:03:22.330Z,56.90
2018-05-09T02:05:54.775Z,56.90
2018-05-09T02:08:27.931Z,57.80
2018-05-09T02:11:00.541Z,57.60
2018-05-09T02:13:33.695Z,57.40
2018-05-09T02:16:06.057Z,57.30
2018-05-09T02:18:38.555Z,57.10
2018-05-09T02:21:11.016Z,57.30
2018-05-09T02:23:43.486Z,57.60
2018-05-09T02:26:16.161Z,58.20
2018-05-09T02:28:48.776Z,58.40
2018-05-09T02:31:21.255Z,58.40
2018-05-09T02:33:53.676Z,58.30
2018-05-09T02:36:26.275Z,58.50
2018-05-09T02:38:59.492Z,58.90
2018-05-09T02:41:31.881Z,58.80
2018-05-09T02:44:04.278Z,59.10
2018-05-09T02:46:36.566Z,59.20
2018-05-09T02:49:09.127Z,59.70
2018-05-09T02:51:41.666Z,60.00
2018-05-09T02:54:14.905Z,60.80
2018-05-09T02:56:48.019Z,61.30
2018-05-09T02:59:20.451Z,61.30
2018-05-09T03:01:53.714Z,64.10
2018-05-09T03:04:26.268Z,63.40
2018-05-09T03:06:58.789Z,63.90
2018-05-09T03:09:31.129Z,64.30
2018-05-09T03:12:03.690Z,64.90
2018-05-09T03:14:36.060Z,65.40
2018-05-09T03:17:08.772Z,66.20
2018-05-09T03:19:41.356Z,66.60
2018-05-09T03:22:14.016Z,66.70
2018-05-09T03:24:47.357Z,68.00
2018-05-09T03:27:20.068Z,67.30
2018-05-09T03:29:52.642Z,67.40
2018-05-09T03:32:25.209Z,67.30
2018-05-09T03:34:57.809Z,67.10
2018-05-09T03:37:30.997Z,66.10
2018-05-09T03:40:03.738Z,66.10
2018-05-09T03:42:36.273Z,66.10
2018-05-09T03:45:09.431Z,66.10
2018-05-09T03:47:41.886Z,65.90
2018-05-09T03:50:15.026Z,67.10
2018-05-09T03:52:48.203Z,66.90
2018-05-09T03:55:21.540Z,66.70
2018-05-09T03:57:54.170Z,66.70
2018-05-09T04:00:26.836Z,66.70
2018-05-09T04:03:12.619Z,66.80
2018-05-09T04:05:58.283Z,66.90
2018-05-09T04:08:43.028Z,66.90
2018-05-09T04:11:15.600Z,67.10
2018-05-09T04:13:48.283Z,67.80
2018-05-09T04:16:20.922Z,67.20
2018-05-09T04:18:53.444Z,67.30
2018-05-09T04:21:26.045Z,67.00
2018-05-09T04:24:05.382Z,67.30
2018-05-09T04:26:37.812Z,66.80
2018-05-09T04:29:10.158Z,67.00
2018-05-09T04:31:43.360Z,66.80
2018-05-09T04:34:15.806Z,66.70
2018-05-09T04:36:48.431Z,66.60
2018-05-09T04:39:20.920Z,66.60
2018-05-09T04:41:53.406Z,66.50
2018-05-09T04:44:25.852Z,66.90
2018-05-09T04:46:58.283Z,67.50
2018-05-09T04:49:31.679Z,67.30
2018-05-09T04:52:04.546Z,67.30
2018-05-09T04:54:36.989Z,67.30
2018-05-09T04:57:09.316Z,67.40
2018-05-09T04:59:41.795Z,67.30
2018-05-09T05:02:15.339Z,66.90
2018-05-09T05:04:48.716Z,66.60
2018-05-09T05:07:21.226Z,66.50
2018-05-09T05:09:53.657Z,66.40
2018-05-09T05:12:26.006Z,66.80
2018-05-09T05:14:58.689Z,66.50
2018-05-09T05:17:31.262Z,66.70
2018-05-09T05:20:03.916Z,66.20
2018-05-09T05:22:37.152Z,66.00
2018-05-09T05:25:09.799Z,65.90
2018-05-09T05:27:42.396Z,66.20
2018-05-09T05:30:14.876Z,65.90
2018-05-09T05:32:47.383Z,64.80
2018-05-09T05:35:20.016Z,64.60
2018-05-09T05:37:52.462Z,64.10
2018-05-09T05:40:25.117Z,61.80
2018-05-09T05:42:57.488Z,61.80
2018-05-09T05:45:29.973Z,62.00
2018-05-09T05:48:02.736Z,60.80
2018-05-09T05:50:35.377Z,60.30
2018-05-09T05:53:08.073Z,60.40
2018-05-09T05:55:41.227Z,59.50
2018-05-09T05:58:13.633Z,59.50
2018-05-09T06:00:46.448Z,58.60
2018-05-09T06:03:19.074Z,58.80
2018-05-09T06:05:51.732Z,58.90
2018-05-09T06:08:24.503Z,58.10
2018-05-09T06:10:57.092Z,57.30
2018-05-09T06:13:29.418Z,57.40
2018-05-09T06:16:01.961Z,57.30
2018-05-09T06:18:34.562Z,58.20
2018-05-09T06:21:06.936Z,58.50
2018-05-09T06:23:39.348Z,56.70
2018-05-09T06:26:11.812Z,57.00
2018-05-09T06:28:44.283Z,56.60
2018-05-09T06:31:16.752Z,58.20
2018-05-09T06:33:49.917Z,56.50
2018-05-09T06:36:23.143Z,56.00
2018-05-09T06:38:55.737Z,56.00
2018-05-09T06:41:28.330Z,55.80
2018-05-09T06:44:02.317Z,53.90
2018-05-09T06:46:34.732Z,53.80
2018-05-09T06:49:07.151Z,54.00
2018-05-09T06:51:39.551Z,53.60
2018-05-09T06:54:12.006Z,53.30
2018-05-09T06:56:44.594Z,53.80
2018-05-09T06:59:17.076Z,54.10
2018-05-09T07:01:50.387Z,53.80
2018-05-09T07:04:23.016Z,53.80
2018-05-09T07:06:55.599Z,53.50
2018-05-09T07:09:28.017Z,54.80
2018-05-09T07:12:00.902Z,52.30
2018-05-09T07:14:33.580Z,51.70
2018-05-09T07:17:07.143Z,50.80
2018-05-09T07:19:39.637Z,50.80
2018-05-09T07:22:12.910Z,50.80
2018-05-09T07:24:45.428Z,50.20
2018-05-09T07:27:17.795Z,50.40
2018-05-09T07:29:50.270Z,49.20
2018-05-09T07:32:23.010Z,49.60
2018-05-09T07:34:55.560Z,49.50
2018-05-09T07:37:28.088Z,49.60
2018-05-09T07:40:00.475Z,48.00
2018-05-09T07:42:33.100Z,49.20
2018-05-09T07:45:05.526Z,48.80
2018-05-09T07:47:38.083Z,49.40
2018-05-09T07:50:10.653Z,49.20
2018-05-09T07:52:43.085Z,48.90
2018-05-09T07:55:15.509Z,47.40
2018-05-09T07:57:47.986Z,47.40
2018-05-09T08:00:20.362Z,46.90
2018-05-09T08:02:52.792Z,47.60
2018-05-09T08:05:25.425Z,47.10
2018-05-09T08:07:58.036Z,47.50
2018-05-09T08:10:30.446Z,47.30
2018-05-09T08:13:09.823Z,46.80
2018-05-09T08:15:43.187Z,48.40
2018-05-09T08:18:15.745Z,47.70
2018-05-09T08:20:49.372Z,47.40
2018-05-09T08:23:21.873Z,47.40
2018-05-09T08:25:55.560Z,46.60
2018-05-09T08:28:28.068Z,46.60
2018-05-09T08:31:00.491Z,46.20
2018-05-09T08:33:32.851Z,45.80
2018-05-09T08:36:05.291Z,45.40
2018-05-09T08:38:37.866Z,45.50
2018-05-09T08:41:10.337Z,45.20
2018-05-09T08:43:42.846Z,45.70
2018-05-09T08:46:15.989Z,45.30
2018-05-09T08:48:48.600Z,45.20
2018-05-09T08:51:20.988Z,45.00
2018-05-09T08:53:53.422Z,45.00
2018-05-09T08:56:25.861Z,44.50
2018-05-09T08:58:58.505Z,43.80
2018-05-09T09:01:30.895Z,44.10
2018-05-09T09:04:03.579Z,43.60
2018-05-09T09:06:36.324Z,43.60
2018-05-09T09:09:08.930Z,42.90
2018-05-09T09:11:41.418Z,42.90
2018-05-09T09:14:14.042Z,42.50
2018-05-09T09:16:46.455Z,42.70
2018-05-09T09:19:18.889Z,42.20
2018-05-09T09:21:51.335Z,40.80
2018-05-09T09:24:24.484Z,39.60
2018-05-09T09:26:57.018Z,39.60
2018-05-09T09:29:29.708Z,39.60
2018-05-09T09:32:02.146Z,39.10
2018-05-09T09:34:35.503Z,38.00
2018-05-09T09:37:07.881Z,39.40
2018-05-09T09:39:40.554Z,40.40
2018-05-09T09:42:13.255Z,39.00
2018-05-09T09:44:45.978Z,38.10
2018-05-09T09:47:19.389Z,39.10
2018-05-09T09:49:51.811Z,39.00
2018-05-09T09:52:24.937Z,38.40
2018-05-09T09:54:57.671Z,38.40
2018-05-09T09:57:30.222Z,39.40
2018-05-09T10:00:02.667Z,37.70
2018-05-09T10:02:35.212Z,37.50
2018-05-09T10:05:07.919Z,38.10
2018-05-09T10:07:41.257Z,38.20
2018-05-09T10:10:13.648Z,38.20
2018-05-09T10:12:46.255Z,37.60
2018-05-09T10:15:18.644Z,37.20
2018-05-09T10:17:51.276Z,35.20
2018-05-09T10:20:24.574Z,37.10
2018-05-09T10:22:57.123Z,36.40
2018-05-09T10:25:30.559Z,37.00
2018-05-09T10:28:03.550Z,37.00
2018-05-09T10:30:36.247Z,37.30
2018-05-09T10:33:08.807Z,38.00
2018-05-09T10:35:41.203Z,36.60
2018-05-09T10:38:13.715Z,36.40
2018-05-09T10:40:46.112Z,35.50
2018-05-09T10:43:18.934Z,35.30
2018-05-09T10:45:52.206Z,35.50
2018-05-09T10:48:25.427Z,35.00
2018-05-09T10:50:58.324Z,34.90
2018-05-09T10:53:30.793Z,34.00
2018-05-09T10:56:03.338Z,33.80
2018-05-09T10:58:36.447Z,35.10
2018-05-09T11:01:08.967Z,35.10
2018-05-09T11:03:41.515Z,34.70
2018-05-09T11:06:13.929Z,34.90
2018-05-09T11:08:46.347Z,35.40
2018-05-09T11:11:18.938Z,35.40
2018-05-09T11:13:51.385Z,35.50
2018-05-09T11:16:24.171Z,36.10
2018-05-09T11:18:57.542Z,34.80
2018-05-09T11:21:30.946Z,36.60
2018-05-09T11:24:04.352Z,35.90
2018-05-09T11:26:36.820Z,35.80
2018-05-09T11:29:09.340Z,34.90
2018-05-09T11:31:42.565Z,35.90
2018-05-09T11:34:14.938Z,35.90
2018-05-09T11:36:47.366Z,37.20
2018-05-09T11:39:27.174Z,37.00
2018-05-09T11:42:00.457Z,37.40
2018-05-09T11:44:32.981Z,37.30
2018-05-09T11:47:06.589Z,37.70
2018-05-09T11:49:39.945Z,38.10
2018-05-09T11:52:13.311Z,37.50
2018-05-09T11:54:45.794Z,37.40
2018-05-09T11:57:18.192Z,37.60
2018-05-09T11:59:51.387Z,37.60
2018-05-09T12:02:23.926Z,37.60
2018-05-09T12:04:56.333Z,37.90
2018-05-09T12:07:28.809Z,38.60
2018-05-09T12:10:01.377Z,38.60
2018-05-09T12:12:33.806Z,38.50
2018-05-09T12:15:07.020Z,38.20
2018-05-09T12:17:39.521Z,38.10
2018-05-09T12:20:12.239Z,38.70
2018-05-09T12:22:44.785Z,37.50
2018-05-09T12:25:17.425Z,37.70
2018-05-09T12:27:49.775Z,37.40
2018-05-09T12:30:22.199Z,35.90
2018-05-09T12:32:54.842Z,35.50
2018-05-09T12:35:28.074Z,36.00
2018-05-09T12:38:00.540Z,35.90
2018-05-09T12:40:33.046Z,36.80
2018-05-09T12:43:05.597Z,36.00
2018-05-09T12:45:38.011Z,36.40
2018-05-09T12:48:10.647Z,35.90
2018-05-09T12:50:43.042Z,36.30
2018-05-09T12:53:15.626Z,36.90
2018-05-09T12:55:48.281Z,38.10
2018-05-09T12:58:20.756Z,37.50
2018-05-09T13:00:53.160Z,35.90
2018-05-09T13:03:25.568Z,35.50
2018-05-09T13:05:58.791Z,34.30
2018-05-09T13:08:31.190Z,34.20
2018-05-09T13:11:03.692Z,33.50
2018-05-09T13:13:36.993Z,33.60
2018-05-09T13:16:09.375Z,33.50
2018-05-09T13:18:41.825Z,33.80
2018-05-09T13:21:14.525Z,33.40
2018-05-09T13:23:47.036Z,33.00
2018-05-09T13:26:19.534Z,32.90
2018-05-09T13:28:52.168Z,32.70
2018-05-09T13:31:25.367Z,33.60
2018-05-09T13:33:58.228Z,33.60
2018-05-09T13:36:30.773Z,34.60
2018-05-09T13:39:03.997Z,34.70
2018-05-09T13:41:36.557Z,34.70
2018-05-09T13:44:09.163Z,35.70
2018-05-09T13:46:41.765Z,36.00
2018-05-09T13:49:14.411Z,36.10
2018-05-09T13:51:47.004Z,37.10
2018-05-09T13:54:20.210Z,36.80
2018-05-09T13:56:53.336Z,37.30
2018-05-09T13:59:26.564Z,37.40
2018-05-09T14:01:59.017Z,37.40
2018-05-09T14:04:31.792Z,37.20
2018-05-09T14:07:04.318Z,36.50
2018-05-09T14:09:37.874Z,36.00
2018-05-09T14:12:10.617Z,35.70
2018-05-09T14:14:43.108Z,35.80
2018-05-09T14:17:16.527Z,36.50
2018-05-09T14:19:49.127Z,36.60
2018-05-09T14:22:22.535Z,37.30
2018-05-09T14:24:55.056Z,37.30
2018-05-09T14:27:27.667Z,37.50
2018-05-09T14:30:00.903Z,38.20
2018-05-09T14:32:34.161Z,39.50
2018-05-09T14:35:06.932Z,38.80
2018-05-09T14:37:39.481Z,39.40
2018-05-09T14:40:12.078Z,40.10
2018-05-09T14:42:44.746Z,40.50
2018-05-09T14:45:17.841Z,41.20
2018-05-09T14:47:50.333Z,41.20
2018-05-09T14:50:22.750Z,41.40
2018-05-09T14:52:55.506Z,40.50
2018-05-09T14:55:28.193Z,39.10
2018-05-09T14:58:00.621Z,39.00
2018-05-09T15:00:33.090Z,38.30
2018-05-09T15:03:05.784Z,36.40
2018-05-09T15:05:38.498Z,35.60
2018-05-09T15:08:10.901Z,34.00
2018-05-09T15:10:43.649Z,32.70
2018-05-09T15:13:16.258Z,32.40
2018-05-09T15:15:48.881Z,32.90
2018-05-09T15:18:27.516Z,30.90
2018-05-09T15:21:00.098Z,30.50
2018-05-09T15:23:32.726Z,29.80
2018-05-09T15:26:05.398Z,28.70
2018-05-09T15:28:38.564Z,26.90
2018-05-09T15:31:10.980Z,26.90
2018-05-09T15:33:43.398Z,26.70
2018-05-09T15:36:15.882Z,26.60
2018-05-09T15:38:48.445Z,26.90
2018-05-09T15:41:21.032Z,27.10
2018-05-09T15:43:53.438Z,27.20
2018-05-09T15:46:26.211Z,27.30
2018-05-09T15:48:58.756Z,27.50
2018-05-09T15:51:31.378Z,27.50
2018-05-09T15:54:04.740Z,27.40
2018-05-09T15:56:38.031Z,28.30
2018-05-09T15:59:10.647Z,28.30
2018-05-09T16:01:43.162Z,28.90
2018-05-09T16:04:15.576Z,28.60
2018-05-09T16:06:48.343Z,29.10
2018-05-09T16:09:20.926Z,29.20
2018-05-09T16:11:54.269Z,28.90
2018-05-09T16:14:26.991Z,28.10
2018-05-09T16:16:59.658Z,27.00
2018-05-09T16:19:32.062Z,25.70
2018-05-09T16:22:04.740Z,25.30
2018-05-09T16:24:37.338Z,24.40
2018-05-09T16:27:09.947Z,24.00
2018-05-09T16:29:42.527Z,23.10
2018-05-09T16:32:15.070Z,22.50
2018-05-09T16:34:47.823Z,21.70
2018-05-09T16:37:20.367Z,20.90
2018-05-09T16:39:52.917Z,20.30
2018-05-09T16:42:25.543Z,19.60
2018-05-09T16:44:58.548Z,19.70
2018-05-09T16:47:31.119Z,20.40
2018-05-09T16:50:03.800Z,20.80
2018-05-09T16:52:36.202Z,21.80
2018-05-09T16:55:09.344Z,23.60
2018-05-09T16:57:42.563Z,24.50
2018-05-09T17:00:15.078Z,24.40
2018-05-09T17:02:47.827Z,26.00
2018-05-09T17:05:20.192Z,27.50
2018-05-09T17:07:52.728Z,28.70
2018-05-09T17:10:25.316Z,30.00
2018-05-09T17:12:57.761Z,31.30
2018-05-09T17:15:30.411Z,32.00
2018-05-09T17:18:02.917Z,32.50
2018-05-09T17:20:35.673Z,33.50
2018-05-09T17:23:08.152Z,34.50
2018-05-09T17:25:41.136Z,34.40
2018-05-09T17:28:14.077Z,34.50
2018-05-09T17:30:47.276Z,35.30
2018-05-09T17:33:20.914Z,36.00
2018-05-09T17:35:54.482Z,36.50
2018-05-09T17:38:27.104Z,36.50
2018-05-09T17:40:59.663Z,37.00
2018-05-09T17:43:33.142Z,38.10
2018-05-09T17:46:05.742Z,38.10
2018-05-09T17:48:38.299Z,39.30
2018-05-09T17:51:10.868Z,38.60
2018-05-09T17:53:43.544Z,38.90
2018-05-09T17:56:16.962Z,40.00
2018-05-09T17:58:49.791Z,39.60
2018-05-09T18:01:23.000Z,41.00
2018-05-09T18:03:55.657Z,41.00
2018-05-09T18:06:28.303Z,40.50
2018-05-09T18:09:01.584Z,41.10
2018-05-09T18:11:34.420Z,41.00
2018-05-09T18:14:07.693Z,42.40
2018-05-09T18:16:40.336Z,42.40
2018-05-09T18:19:13.310Z,42.90
2018-05-09T18:21:45.928Z,43.50
2018-05-09T18:24:18.512Z,44.40
2018-05-09T18:26:51.225Z,44.20
2018-05-09T18:29:23.741Z,44.60
2018-05-09T18:31:56.261Z,45.10
2018-05-09T18:34:28.765Z,45.10
2018-05-09T18:37:01.478Z,45.90
2018-05-09T18:39:34.741Z,46.10
2018-05-09T18:42:07.515Z,46.30
2018-05-09T18:44:40.137Z,47.10
2018-05-09T18:47:12.854Z,48.00
2018-05-09T18:49:45.465Z,48.30
2018-05-09T18:52:18.166Z,48.00
2018-05-09T18:54:50.653Z,48.80
2018-05-09T18:57:23.227Z,49.10
2018-05-09T18:59:56.488Z,49.70
2018-05-09T19:02:28.838Z,49.60
2018-05-09T19:05:02.459Z,50.70
2018-05-09T19:07:35.348Z,50.60
2018-05-09T19:10:08.122Z,51.80
2018-05-09T19:12:41.328Z,52.30
2018-05-09T19:15:14.543Z,52.00
2018-05-09T19:17:48.090Z,52.60
2018-05-09T19:20:20.649Z,52.60
2018-05-09T19:22:53.290Z,52.80
2018-05-09T19:25:25.788Z,53.30
2018-05-09T19:27:58.643Z,53.70
2018-05-09T19:30:31.336Z,53.50
2018-05-09T19:33:03.962Z,54.40
2018-05-09T19:35:36.990Z,54.50
2018-05-09T19:38:10.368Z,55.50
2018-05-09T19:40:43.002Z,55.40
2018-05-09T19:43:15.757Z,55.40
2018-05-09T19:45:48.438Z,55.60
2018-05-09T19:48:21.093Z,55.50
2018-05-09T19:50:53.729Z,55.90
2018-05-09T19:53:26.253Z,56.40
2018-05-09T19:55:58.874Z,56.40
2018-05-09T19:58:31.605Z,56.40
2018-05-09T20:01:04.121Z,56.80
2018-05-09T20:03:37.048Z,56.80
2018-05-09T20:06:09.546Z,57.10
2018-05-09T20:08:42.224Z,57.30
2018-05-09T20:11:14.755Z,57.60
2018-05-09T20:13:47.575Z,57.60
2018-05-09T20:16:20.143Z,57.90
2018-05-09T20:18:52.881Z,57.90
2018-05-09T20:21:26.210Z,59.00
2018-05-09T20:23:59.572Z,59.50
2018-05-09T20:26:32.243Z,59.40
2018-05-09T20:29:04.897Z,60.40
2018-05-09T20:31:55.847Z,61.10
2018-05-09T20:34:30.549Z,63.40
2018-05-09T20:37:03.677Z,62.60
2018-05-09T20:39:36.385Z,63.30
2018-05-09T20:42:08.966Z,63.70
2018-05-09T20:44:41.705Z,64.20
2018-05-09T20:47:14.453Z,64.60
2018-05-09T20:49:47.203Z,64.80
2018-05-09T20:52:19.874Z,64.60
2018-05-09T20:54:52.578Z,64.50
2018-05-09T20:57:25.268Z,64.50
2018-05-09T20:59:57.969Z,64.20
2018-05-09T21:02:30.724Z,64.40
2018-05-09T21:05:03.378Z,64.00
2018-05-09T21:07:48.185Z,63.80
2018-05-09T21:10:21.634Z,63.70
2018-05-09T21:12:54.870Z,63.80
2018-05-09T21:15:27.647Z,63.80
2018-05-09T21:18:00.287Z,63.70
2018-05-09T21:20:32.991Z,63.70
2018-05-09T21:23:05.690Z,63.70
2018-05-09T21:25:38.353Z,63.50
2018-05-09T21:28:10.998Z,63.60
2018-05-09T21:30:43.583Z,63.60
2018-05-09T21:33:16.298Z,63.60
2018-05-09T21:35:49.077Z,64.00
2018-05-09T21:38:21.651Z,64.10
2018-05-09T21:40:54.901Z,64.80
2018-05-09T21:43:27.454Z,64.80
2018-05-09T21:46:00.568Z,65.20
2018-05-09T21:48:33.252Z,65.60
2018-05-09T21:51:05.735Z,66.60
2018-05-09T21:53:38.167Z,66.50
2018-05-09T21:56:10.839Z,67.10
2018-05-09T21:58:43.811Z,67.70
2018-05-09T22:01:16.537Z,67.80
2018-05-09T22:03:49.287Z,67.70
2018-05-09T22:06:22.545Z,68.00
2018-05-09T22:08:55.408Z,67.80
2018-05-09T22:11:28.172Z,68.00
2018-05-09T22:14:01.016Z,68.10
2018-05-09T22:16:33.558Z,68.90
2018-05-09T22:19:06.347Z,69.10
2018-05-09T22:21:38.882Z,69.40
2018-05-09T22:24:11.525Z,69.60
2018-05-09T22:26:43.938Z,69.40
2018-05-09T22:29:16.699Z,69.60
2018-05-09T22:31:49.277Z,69.80
2018-05-09T22:34:22.480Z,69.60
2018-05-09T22:36:54.868Z,69.60
2018-05-09T22:39:27.323Z,70.10
2018-05-09T22:42:00.056Z,70.30
2018-05-09T22:44:33.017Z,70.60
2018-05-09T22:47:05.595Z,70.70
2018-05-09T22:49:38.030Z,70.60
2018-05-09T22:52:10.491Z,70.90
2018-05-09T22:54:43.929Z,71.40
2018-05-09T22:57:16.399Z,71.30
2018-05-09T22:59:49.544Z,71.60
2018-05-09T23:02:22.027Z,71.50
2018-05-09T23:04:54.491Z,71.80
2018-05-09T23:07:27.418Z,71.80
2018-05-09T23:09:59.887Z,71.80
2018-05-09T23:12:32.318Z,71.50
2018-05-09T23:15:04.968Z,71.60
2018-05-09T23:17:37.449Z,71.30
2018-05-09T23:20:10.056Z,71.20
2018-05-09T23:22:42.752Z,71.50
2018-05-09T23:25:15.438Z,71.00
2018-05-09T23:27:47.997Z,70.90
2018-05-09T23:30:21.264Z,70.70
2018-05-09T23:32:53.861Z,70.60
2018-05-09T23:35:26.553Z,70.80
2018-05-09T23:37:59.212Z,70.80
2018-05-09T23:40:31.853Z,70.50
2018-05-09T23:43:04.509Z,70.90
2018-05-09T23:45:37.751Z,70.60
2018-05-09T23:48:10.233Z,70.50
2018-05-09T23:50:42.857Z,70.50
2018-05-09T23:53:15.412Z,70.50
2018-05-09T23:55:47.801Z,71.00
2018-05-09T23:58:20.968Z,71.50
